EDDL/DUS METAR and TAF weather

Enter ICAO airport designator
Station Type Date Time Source
EDDL METAR 2020/06/06 19:50 UTC NOAA

EDDL 061950Z 23008KT 190V260 9999 FEW025TCU 14/04 Q1002 NOSIG


Station Type Date Time Source
EDDL Decoded METAR 2020/06/06 19:50 UTC NOAA

Duesseldorf, Germany (EDDL) 51-18N 006-46E 41M
Jun 06, 2020 - 03:50 PM EDT / 2020.06.06 1950 UTC
Wind: from the SW (230 degrees) at 9 MPH (8 KT) (direction variable):0
Visibility: greater than 7 mile(s):0
Sky conditions: mostly clear
Weather: Towering cumulus clouds observed
Temperature: 57 F (14 C)
Dew Point: 39 F (4 C)
Relative Humidity: 50%
Pressure (altimeter): 29.59 in. Hg (1002 hPa)
ob: EDDL 061950Z 23008KT 190V260 9999 FEW025TCU 14/04 Q1002 NOSIG
cycle: 20

Station Type Date Time Source
EDDL TAF 2020/06/06 18:28 UTC NOAA

TAF EDDL 061700Z 0618/0724 24015G25KT 9999 FEW040
BECMG 0618/0621 18010KT
BECMG 0707/0709 24012KT PROB30
TEMPO 0709/0715 26015G25KT
BECMG 0718/0720 24005KT

Example: see airport list